createdAt,value
2019-06-26T00:00:24.128Z,21.50
2019-06-26T00:02:58.758Z,21.50
2019-06-26T00:05:33.738Z,21.40
2019-06-26T00:08:08.369Z,21.30
2019-06-26T00:10:43.040Z,21.30
2019-06-26T00:13:26.360Z,21.30
2019-06-26T00:15:54.145Z,21.30
2019-06-26T00:18:28.914Z,21.30
2019-06-26T00:21:03.731Z,21.40
2019-06-26T00:23:38.344Z,21.40
2019-06-26T00:26:13.075Z,21.40
2019-06-26T00:28:47.785Z,21.40
2019-06-26T00:31:22.927Z,21.40
2019-06-26T00:33:57.611Z,21.40
2019-06-26T00:36:32.407Z,21.30
2019-06-26T00:39:07.965Z,21.20
2019-06-26T00:41:42.757Z,21.10
2019-06-26T00:44:17.513Z,21.10
2019-06-26T00:46:52.325Z,21.00
2019-06-26T00:49:27.186Z,21.00
2019-06-26T00:52:01.983Z,20.90
2019-06-26T00:54:36.753Z,20.80
2019-06-26T00:57:11.560Z,20.70
2019-06-26T00:59:46.320Z,20.70
2019-06-26T01:02:21.521Z,20.80
2019-06-26T01:04:57.938Z,20.80
2019-06-26T01:07:34.371Z,20.80
2019-06-26T01:10:11.208Z,20.90
2019-06-26T01:12:45.929Z,21.00
2019-06-26T01:15:20.695Z,20.90
2019-06-26T01:17:55.494Z,20.90
2019-06-26T01:20:30.266Z,20.80
2019-06-26T01:23:05.063Z,20.80
2019-06-26T01:25:39.748Z,20.70
2019-06-26T01:28:14.394Z,20.70
2019-06-26T01:30:49.041Z,20.70
2019-06-26T01:33:23.845Z,20.70
2019-06-26T01:35:58.614Z,20.60
2019-06-26T01:38:33.295Z,20.60
2019-06-26T01:41:07.987Z,20.70
2019-06-26T01:43:42.823Z,20.70
2019-06-26T01:46:17.507Z,20.70
2019-06-26T01:48:52.307Z,20.60
2019-06-26T01:51:27.013Z,20.50
2019-06-26T01:54:01.699Z,20.50
2019-06-26T01:56:36.542Z,20.40
2019-06-26T01:59:11.262Z,20.40
2019-06-26T02:01:45.886Z,20.40
2019-06-26T02:04:20.678Z,20.50
2019-06-26T02:06:55.463Z,20.50
2019-06-26T02:09:30.260Z,20.50
2019-06-26T02:12:05.019Z,20.60
2019-06-26T02:14:39.691Z,20.60
2019-06-26T02:17:14.426Z,20.60
2019-06-26T02:19:49.142Z,20.60
2019-06-26T02:22:23.903Z,20.60
2019-06-26T02:24:58.635Z,20.60
2019-06-26T02:27:33.399Z,20.60
2019-06-26T02:30:08.454Z,20.40
2019-06-26T02:32:43.111Z,20.30
2019-06-26T02:35:17.997Z,20.30
2019-06-26T02:37:53.790Z,20.30
2019-06-26T02:40:28.563Z,20.40
2019-06-26T02:43:06.702Z,20.30
2019-06-26T02:45:39.781Z,20.20
2019-06-26T02:48:14.548Z,20.20
2019-06-26T02:50:49.292Z,20.20
2019-06-26T02:53:24.057Z,20.20
2019-06-26T02:55:58.795Z,20.20
2019-06-26T02:58:33.554Z,20.20
2019-06-26T03:01:08.374Z,20.20
2019-06-26T03:03:43.131Z,20.30
2019-06-26T03:06:17.931Z,20.30
2019-06-26T03:08:52.694Z,20.40
2019-06-26T03:11:27.439Z,20.50
2019-06-26T03:14:02.205Z,20.70
2019-06-26T03:16:36.864Z,20.90
2019-06-26T03:19:11.550Z,21.10
2019-06-26T03:21:46.356Z,21.30
2019-06-26T03:24:21.045Z,21.50
2019-06-26T03:26:55.734Z,21.70
2019-06-26T03:29:30.495Z,22.00
2019-06-26T03:32:05.312Z,22.20
2019-06-26T03:34:39.926Z,22.60
2019-06-26T03:37:14.616Z,22.70
2019-06-26T03:39:49.386Z,22.70
2019-06-26T03:42:24.003Z,22.90
2019-06-26T03:44:58.701Z,23.20
2019-06-26T03:47:33.431Z,23.70
2019-06-26T03:50:09.099Z,23.90
2019-06-26T03:52:43.827Z,24.00
2019-06-26T03:55:18.556Z,24.10
2019-06-26T03:57:53.312Z,24.30
2019-06-26T04:00:41.949Z,24.60
2019-06-26T04:03:16.744Z,24.90
2019-06-26T04:05:51.444Z,25.00
2019-06-26T04:08:26.198Z,25.30
2019-06-26T04:11:00.983Z,25.60
2019-06-26T04:13:35.631Z,25.40
2019-06-26T04:16:10.339Z,25.50
2019-06-26T04:18:44.992Z,25.80
2019-06-26T04:21:19.688Z,26.10
2019-06-26T04:23:54.358Z,26.30
2019-06-26T04:26:29.121Z,26.30
2019-06-26T04:29:04.132Z,26.20
2019-06-26T04:31:38.883Z,26.20
2019-06-26T04:34:13.538Z,26.10
2019-06-26T04:36:49.974Z,26.30
2019-06-26T04:39:24.711Z,26.50
2019-06-26T04:41:59.480Z,26.60
2019-06-26T04:44:34.146Z,26.70
2019-06-26T04:47:08.789Z,26.80
2019-06-26T04:49:43.579Z,26.80
2019-06-26T04:52:18.367Z,26.70
2019-06-26T04:54:53.027Z,26.80
2019-06-26T04:57:27.643Z,27.00
2019-06-26T05:00:02.520Z,27.20
2019-06-26T05:02:37.322Z,27.20
2019-06-26T05:05:12.111Z,27.40
2019-06-26T05:07:46.807Z,27.50
2019-06-26T05:10:22.078Z,27.80
2019-06-26T05:12:56.844Z,28.10
2019-06-26T05:15:31.580Z,28.30
2019-06-26T05:18:06.350Z,28.60
2019-06-26T05:20:41.142Z,28.70
2019-06-26T05:23:15.843Z,28.90
2019-06-26T05:25:50.582Z,28.90
2019-06-26T05:28:25.277Z,28.90
2019-06-26T05:31:00.093Z,29.00
2019-06-26T05:33:34.788Z,29.30
2019-06-26T05:36:09.551Z,29.60
2019-06-26T05:38:44.139Z,30.00
2019-06-26T05:41:19.000Z,30.10
2019-06-26T05:43:53.597Z,30.40
2019-06-26T05:46:31.632Z,30.10
2019-06-26T05:49:04.650Z,29.70
2019-06-26T05:51:39.376Z,29.70
2019-06-26T05:54:15.636Z,29.60
2019-06-26T05:56:50.426Z,29.90
2019-06-26T05:59:25.119Z,30.10
2019-06-26T06:02:00.617Z,29.80
2019-06-26T06:04:35.221Z,29.80
2019-06-26T06:07:10.122Z,29.90
2019-06-26T06:09:44.873Z,30.30
2019-06-26T06:12:19.671Z,30.80
2019-06-26T06:14:54.443Z,30.90
2019-06-26T06:17:29.177Z,31.00
2019-06-26T06:20:05.811Z,31.00
2019-06-26T06:22:40.544Z,31.40
2019-06-26T06:25:15.304Z,31.60
2019-06-26T06:27:49.976Z,31.70
2019-06-26T06:30:24.848Z,31.50
2019-06-26T06:32:59.646Z,31.10
2019-06-26T06:35:34.414Z,31.10
2019-06-26T06:38:09.135Z,31.00
2019-06-26T06:40:43.899Z,30.80
2019-06-26T06:43:19.079Z,30.90
2019-06-26T06:45:53.809Z,31.10
2019-06-26T06:48:28.496Z,31.40
2019-06-26T06:51:03.212Z,31.10
2019-06-26T06:53:37.924Z,31.30
2019-06-26T06:56:12.615Z,31.10
2019-06-26T06:58:49.860Z,31.40
2019-06-26T07:01:24.649Z,31.50
2019-06-26T07:03:59.367Z,31.60
2019-06-26T07:06:34.167Z,31.40
2019-06-26T07:09:08.965Z,31.40
2019-06-26T07:11:43.744Z,31.40
2019-06-26T07:14:18.546Z,31.20
2019-06-26T07:16:53.315Z,31.20
2019-06-26T07:19:28.238Z,31.30
2019-06-26T07:22:06.234Z,30.70
2019-06-26T07:24:39.548Z,30.80
2019-06-26T07:27:14.306Z,31.20
2019-06-26T07:29:49.047Z,31.40
2019-06-26T07:32:23.829Z,31.20
2019-06-26T07:34:58.607Z,31.00
2019-06-26T07:37:34.421Z,30.90
2019-06-26T07:40:09.525Z,31.00
2019-06-26T07:42:44.317Z,30.90
2019-06-26T07:45:19.224Z,31.00
2019-06-26T07:47:53.922Z,31.00
2019-06-26T07:50:32.363Z,31.00
2019-06-26T07:53:07.363Z,31.10
2019-06-26T07:55:44.193Z,31.30
2019-06-26T07:58:18.958Z,31.10
2019-06-26T08:00:53.741Z,31.20
2019-06-26T08:03:28.508Z,31.30
2019-06-26T08:06:03.238Z,31.40
2019-06-26T08:08:37.867Z,31.60
2019-06-26T08:11:12.585Z,31.90
2019-06-26T08:13:47.347Z,31.90
2019-06-26T08:16:22.546Z,31.90
2019-06-26T08:18:57.274Z,32.20
2019-06-26T08:21:32.053Z,32.30
2019-06-26T08:24:06.749Z,31.90
2019-06-26T08:26:41.489Z,32.00
2019-06-26T08:29:16.164Z,32.40
2019-06-26T08:31:50.882Z,32.50
2019-06-26T08:34:25.649Z,32.60
2019-06-26T08:37:00.386Z,32.70
2019-06-26T08:39:35.138Z,32.80
2019-06-26T08:42:09.961Z,32.70
2019-06-26T08:44:44.659Z,32.40
2019-06-26T08:47:19.388Z,32.60
2019-06-26T08:49:54.143Z,32.90
2019-06-26T08:52:28.936Z,32.70
2019-06-26T08:55:04.921Z,32.60
2019-06-26T08:57:39.693Z,32.40
2019-06-26T09:00:15.224Z,32.20
2019-06-26T09:02:49.894Z,32.10
2019-06-26T09:05:24.662Z,32.10
2019-06-26T09:07:59.383Z,32.50
2019-06-26T09:10:34.165Z,32.80
2019-06-26T09:13:08.956Z,33.20
2019-06-26T09:15:43.631Z,33.10
2019-06-26T09:18:34.432Z,33.10
2019-06-26T09:20:54.782Z,33.20
2019-06-26T09:23:31.188Z,33.30
2019-06-26T09:26:05.809Z,33.20
2019-06-26T09:28:40.610Z,32.90
2019-06-26T09:31:15.291Z,33.00
2019-06-26T09:33:50.005Z,32.90
2019-06-26T09:36:24.756Z,32.90
2019-06-26T09:38:59.479Z,32.90
2019-06-26T09:41:34.296Z,32.90
2019-06-26T09:44:09.042Z,33.00
2019-06-26T09:46:43.784Z,33.00
2019-06-26T09:49:18.593Z,32.70
2019-06-26T09:51:53.298Z,32.40
2019-06-26T09:54:27.970Z,32.70
2019-06-26T09:57:02.711Z,32.70
2019-06-26T09:59:37.427Z,32.90
2019-06-26T10:02:12.982Z,32.90
2019-06-26T10:04:47.782Z,33.10
2019-06-26T10:07:22.545Z,33.30
2019-06-26T10:09:57.374Z,33.20
2019-06-26T10:12:32.049Z,33.00
2019-06-26T10:15:07.046Z,33.10
2019-06-26T10:17:41.800Z,33.10
2019-06-26T10:20:16.543Z,33.20
2019-06-26T10:22:51.204Z,33.00
2019-06-26T10:25:26.028Z,32.80
2019-06-26T10:28:00.761Z,32.60
2019-06-26T10:30:35.521Z,32.60
2019-06-26T10:33:10.376Z,32.70
2019-06-26T10:35:45.173Z,32.80
2019-06-26T10:38:19.858Z,32.80
2019-06-26T10:40:54.655Z,33.10
2019-06-26T10:43:29.476Z,33.40
2019-06-26T10:46:04.923Z,33.40
2019-06-26T10:48:39.595Z,33.60
2019-06-26T10:51:14.272Z,33.80
2019-06-26T10:53:48.951Z,33.90
2019-06-26T10:56:23.685Z,34.00
2019-06-26T10:58:58.288Z,33.90
2019-06-26T11:01:33.071Z,33.80
2019-06-26T11:04:08.422Z,33.60
2019-06-26T11:06:43.218Z,33.60
2019-06-26T11:09:17.841Z,33.60
2019-06-26T11:11:52.612Z,33.40
2019-06-26T11:14:27.368Z,33.40
2019-06-26T11:17:02.101Z,33.40
2019-06-26T11:19:43.725Z,33.60
2019-06-26T11:22:13.130Z,33.60
2019-06-26T11:24:47.841Z,33.50
2019-06-26T11:27:22.605Z,33.50
2019-06-26T11:29:57.227Z,33.60
2019-06-26T11:32:32.018Z,33.80
2019-06-26T11:35:07.966Z,33.80
2019-06-26T11:37:42.759Z,33.80
2019-06-26T11:40:17.612Z,33.60
2019-06-26T11:42:52.353Z,33.60
2019-06-26T11:45:27.113Z,33.60
2019-06-26T11:48:01.912Z,33.60
2019-06-26T11:50:36.667Z,33.60
2019-06-26T11:53:11.495Z,33.70
2019-06-26T11:55:46.547Z,33.90
2019-06-26T11:58:21.276Z,34.00
2019-06-26T12:00:55.994Z,34.20
2019-06-26T12:03:30.699Z,34.20
2019-06-26T12:06:15.676Z,34.10
2019-06-26T12:08:41.924Z,34.10
2019-06-26T12:11:16.611Z,34.00
2019-06-26T12:13:51.325Z,33.80
2019-06-26T12:16:26.009Z,33.60
2019-06-26T12:19:00.673Z,33.50
2019-06-26T12:21:35.435Z,33.60
2019-06-26T12:24:10.149Z,33.60
2019-06-26T12:26:44.846Z,33.40
2019-06-26T12:29:24.223Z,33.40
2019-06-26T12:31:58.914Z,33.60
2019-06-26T12:34:33.749Z,33.60
2019-06-26T12:37:08.408Z,33.70
2019-06-26T12:39:43.052Z,33.80
2019-06-26T12:42:17.838Z,33.60
2019-06-26T12:44:52.634Z,33.60
2019-06-26T12:47:27.329Z,33.60
2019-06-26T12:50:02.748Z,33.60
2019-06-26T12:52:37.666Z,33.70
2019-06-26T12:55:12.527Z,33.60
2019-06-26T12:57:47.248Z,33.70
2019-06-26T13:00:22.366Z,33.70
2019-06-26T13:02:57.098Z,33.70
2019-06-26T13:05:35.643Z,33.70
2019-06-26T13:08:10.373Z,33.60
2019-06-26T13:10:50.058Z,33.60
2019-06-26T13:13:21.585Z,33.50
2019-06-26T13:15:56.271Z,33.40
2019-06-26T13:18:50.230Z,33.40
2019-06-26T13:21:25.340Z,33.30
2019-06-26T13:23:59.996Z,33.30
2019-06-26T13:26:34.776Z,33.40
2019-06-26T13:29:10.166Z,33.40
2019-06-26T13:31:45.798Z,33.40
2019-06-26T13:34:20.386Z,33.40
2019-06-26T13:36:55.096Z,33.30
2019-06-26T13:39:29.725Z,33.30
2019-06-26T13:42:04.522Z,33.30
2019-06-26T13:44:39.280Z,33.30
2019-06-26T13:47:14.007Z,33.30
2019-06-26T13:49:48.709Z,33.30
2019-06-26T13:52:23.359Z,33.40
2019-06-26T13:55:00.899Z,33.40
2019-06-26T13:57:35.951Z,33.40
2019-06-26T14:00:11.530Z,33.30
2019-06-26T14:02:46.270Z,33.20
2019-06-26T14:05:21.005Z,33.20
2019-06-26T14:07:55.723Z,33.20
2019-06-26T14:10:30.487Z,33.10
2019-06-26T14:13:05.362Z,33.20
2019-06-26T14:15:40.062Z,33.20
2019-06-26T14:18:14.918Z,33.20
2019-06-26T14:20:49.757Z,33.20
2019-06-26T14:23:25.421Z,33.20
2019-06-26T14:26:00.029Z,33.20
2019-06-26T14:28:34.732Z,33.20
2019-06-26T14:31:09.344Z,33.20
2019-06-26T14:33:44.183Z,33.10
2019-06-26T14:36:18.855Z,32.90
2019-06-26T14:38:53.545Z,32.80
2019-06-26T14:41:28.297Z,32.60
2019-06-26T14:44:03.183Z,32.70
2019-06-26T14:46:37.880Z,32.80
2019-06-26T14:49:15.430Z,32.70
2019-06-26T14:51:50.125Z,32.80
2019-06-26T14:54:24.812Z,32.80
2019-06-26T14:56:59.617Z,32.80
2019-06-26T14:59:34.439Z,32.90
2019-06-26T15:02:10.780Z,32.90
2019-06-26T15:04:46.233Z,33.00
2019-06-26T15:07:20.977Z,33.10
2019-06-26T15:09:55.754Z,33.00
2019-06-26T15:12:30.457Z,32.90
2019-06-26T15:15:06.912Z,32.80
2019-06-26T15:17:41.666Z,32.80
2019-06-26T15:20:18.129Z,32.70
2019-06-26T15:22:54.291Z,32.80
2019-06-26T15:25:29.028Z,32.80
2019-06-26T15:28:03.790Z,32.80
2019-06-26T15:30:38.590Z,32.80
2019-06-26T15:33:13.577Z,32.80
2019-06-26T15:35:48.226Z,32.80
2019-06-26T15:38:22.945Z,32.80
2019-06-26T15:40:57.576Z,32.70
2019-06-26T15:43:32.476Z,32.80
2019-06-26T15:46:08.749Z,32.70
2019-06-26T15:48:43.376Z,32.80
2019-06-26T15:51:18.099Z,32.80
2019-06-26T15:53:52.820Z,32.80
2019-06-26T15:56:27.711Z,32.70
2019-06-26T15:59:03.105Z,32.70
2019-06-26T16:01:37.830Z,32.60
2019-06-26T16:04:12.617Z,32.50
2019-06-26T16:06:47.526Z,32.50
2019-06-26T16:09:22.280Z,32.50
2019-06-26T16:11:58.999Z,32.50
2019-06-26T16:14:33.378Z,32.50
2019-06-26T16:17:18.615Z,32.40
2019-06-26T16:19:53.342Z,32.40
2019-06-26T16:22:32.579Z,32.30
2019-06-26T16:25:06.009Z,32.30
2019-06-26T16:27:40.664Z,32.30
2019-06-26T16:30:15.687Z,32.30
2019-06-26T16:32:50.422Z,32.20
2019-06-26T16:35:25.121Z,32.20
2019-06-26T16:38:00.840Z,32.20
2019-06-26T16:40:35.513Z,32.20
2019-06-26T16:43:10.320Z,32.20
2019-06-26T16:45:44.995Z,32.20
2019-06-26T16:48:19.753Z,31.90
2019-06-26T16:50:54.474Z,31.80
2019-06-26T16:53:29.480Z,31.50
2019-06-26T16:56:04.252Z,31.30
2019-06-26T16:58:39.084Z,31.20
2019-06-26T17:01:13.783Z,31.20
2019-06-26T17:03:48.460Z,31.10
2019-06-26T17:06:23.071Z,31.00
2019-06-26T17:08:57.821Z,30.80
2019-06-26T17:11:32.574Z,30.80
2019-06-26T17:14:07.374Z,30.70
2019-06-26T17:16:42.138Z,30.60
2019-06-26T17:19:16.796Z,30.60
2019-06-26T17:22:10.782Z,30.60
2019-06-26T17:24:45.475Z,30.50
2019-06-26T17:27:20.366Z,30.40
2019-06-26T17:29:56.155Z,30.40
2019-06-26T17:32:33.635Z,30.30
2019-06-26T17:35:08.638Z,30.30
2019-06-26T17:37:43.319Z,30.20
2019-06-26T17:40:18.166Z,30.20
2019-06-26T17:42:52.932Z,30.10
2019-06-26T17:45:27.662Z,30.10
2019-06-26T17:48:02.445Z,30.00
2019-06-26T17:50:37.274Z,29.90
2019-06-26T17:53:21.125Z,29.80
2019-06-26T17:55:48.424Z,29.80
2019-06-26T17:58:25.410Z,29.60
2019-06-26T18:01:00.885Z,29.50
2019-06-26T18:03:35.592Z,29.40
2019-06-26T18:06:10.393Z,29.30
2019-06-26T18:08:45.164Z,29.20
2019-06-26T18:11:19.845Z,29.10
2019-06-26T18:13:54.627Z,29.00
2019-06-26T18:16:29.488Z,28.90
2019-06-26T18:19:04.428Z,28.80
2019-06-26T18:21:39.242Z,28.70
2019-06-26T18:24:13.910Z,28.60
2019-06-26T18:26:49.561Z,28.50
2019-06-26T18:29:24.322Z,28.30
2019-06-26T18:31:59.050Z,28.20
2019-06-26T18:34:37.026Z,28.10
2019-06-26T18:37:11.830Z,28.00
2019-06-26T18:39:46.606Z,27.90
2019-06-26T18:42:21.464Z,27.80
2019-06-26T18:44:59.311Z,27.70
2019-06-26T18:47:34.201Z,27.70
2019-06-26T18:50:09.621Z,27.70
2019-06-26T18:52:44.575Z,27.60
2019-06-26T18:55:19.565Z,27.50
2019-06-26T18:57:54.746Z,27.40
2019-06-26T19:00:29.712Z,27.40
2019-06-26T19:03:04.732Z,27.30
2019-06-26T19:05:41.357Z,27.20
2019-06-26T19:08:16.597Z,27.20
2019-06-26T19:10:52.175Z,27.00
2019-06-26T19:13:27.174Z,27.00
2019-06-26T19:16:04.464Z,26.90
2019-06-26T19:18:38.761Z,26.80
2019-06-26T19:21:13.732Z,26.80
2019-06-26T19:23:48.815Z,26.70
2019-06-26T19:26:24.917Z,26.70
2019-06-26T19:28:59.975Z,26.70
2019-06-26T19:31:34.967Z,26.60
2019-06-26T19:34:11.460Z,26.50
2019-06-26T19:36:50.528Z,26.30
2019-06-26T19:39:28.547Z,26.20
2019-06-26T19:42:03.559Z,26.10
2019-06-26T19:44:38.552Z,25.90
2019-06-26T19:47:14.695Z,25.80
2019-06-26T19:49:50.796Z,25.70
2019-06-26T19:52:25.761Z,25.70
2019-06-26T19:55:00.790Z,25.70
2019-06-26T19:57:37.196Z,25.70
2019-06-26T20:00:12.446Z,25.60
2019-06-26T20:02:49.448Z,25.60
2019-06-26T20:05:24.696Z,25.50
2019-06-26T20:08:00.558Z,25.50
2019-06-26T20:10:35.990Z,25.40
2019-06-26T20:13:11.062Z,25.30
2019-06-26T20:15:46.202Z,25.30
2019-06-26T20:18:22.058Z,25.40
2019-06-26T20:20:57.246Z,25.30
2019-06-26T20:23:32.425Z,25.30
2019-06-26T20:26:07.503Z,25.30
2019-06-26T20:28:42.480Z,25.30
2019-06-26T20:31:17.507Z,25.20
2019-06-26T20:33:52.481Z,25.20
2019-06-26T20:36:27.579Z,25.10
2019-06-26T20:39:02.671Z,25.10
2019-06-26T20:41:37.770Z,25.00
2019-06-26T20:44:12.676Z,25.00
2019-06-26T20:46:47.671Z,25.00
2019-06-26T20:49:24.010Z,24.90
2019-06-26T20:51:58.788Z,24.80
2019-06-26T20:54:36.555Z,24.70
2019-06-26T20:57:13.849Z,24.60
2019-06-26T20:59:48.541Z,24.50
2019-06-26T21:02:23.331Z,24.40
2019-06-26T21:04:57.967Z,24.30
2019-06-26T21:07:32.626Z,24.30
2019-06-26T21:10:07.595Z,24.40
2019-06-26T21:12:42.328Z,24.40
2019-06-26T21:15:17.022Z,24.50
2019-06-26T21:17:51.866Z,24.50
2019-06-26T21:20:26.534Z,24.50
2019-06-26T21:23:01.162Z,24.40
2019-06-26T21:25:35.934Z,24.30
2019-06-26T21:28:10.720Z,24.30
2019-06-26T21:30:45.354Z,24.20
2019-06-26T21:33:20.069Z,24.30
2019-06-26T21:35:54.840Z,24.20
2019-06-26T21:38:29.559Z,24.10
2019-06-26T21:41:04.433Z,24.10
2019-06-26T21:43:40.420Z,24.10
2019-06-26T21:46:15.116Z,24.00
2019-06-26T21:48:49.842Z,24.00
2019-06-26T21:51:24.528Z,24.00
2019-06-26T21:53:59.182Z,24.00
2019-06-26T21:56:33.962Z,24.00
2019-06-26T21:59:08.751Z,24.00
2019-06-26T22:01:43.525Z,24.00
2019-06-26T22:04:18.304Z,24.00
2019-06-26T22:06:53.233Z,24.00
2019-06-26T22:09:27.978Z,24.00
2019-06-26T22:12:02.666Z,24.00
2019-06-26T22:14:37.471Z,23.90
2019-06-26T22:17:12.237Z,23.90
2019-06-26T22:19:47.005Z,23.90
2019-06-26T22:22:21.735Z,23.80
2019-06-26T22:24:56.555Z,23.80
2019-06-26T22:27:31.246Z,23.70
2019-06-26T22:30:10.720Z,23.60
2019-06-26T22:32:45.408Z,23.60
2019-06-26T22:35:20.215Z,23.60
2019-06-26T22:37:54.902Z,23.60
2019-06-26T22:40:29.718Z,23.60
2019-06-26T22:43:04.472Z,23.50
2019-06-26T22:45:41.125Z,23.50
2019-06-26T22:48:15.894Z,23.50
2019-06-26T22:50:50.693Z,23.50
2019-06-26T22:53:25.411Z,23.50
2019-06-26T22:56:07.567Z,23.40
2019-06-26T22:58:36.542Z,23.30
2019-06-26T23:01:11.361Z,23.10
2019-06-26T23:03:46.124Z,23.10
2019-06-26T23:06:20.913Z,23.00
2019-06-26T23:08:55.560Z,23.00
2019-06-26T23:11:30.380Z,22.90
2019-06-26T23:14:05.076Z,22.90
2019-06-26T23:16:39.873Z,23.00
2019-06-26T23:19:15.122Z,23.10
2019-06-26T23:21:50.055Z,23.10
2019-06-26T23:24:24.875Z,23.20
2019-06-26T23:26:59.682Z,23.30
2019-06-26T23:29:34.386Z,23.40
2019-06-26T23:32:09.189Z,23.40
2019-06-26T23:34:43.903Z,23.40
2019-06-26T23:37:20.356Z,23.50
2019-06-26T23:39:54.955Z,23.50
2019-06-26T23:42:29.592Z,23.60
2019-06-26T23:45:07.032Z,23.70
2019-06-26T23:47:41.767Z,23.80
2019-06-26T23:50:16.633Z,23.80
2019-06-26T23:52:51.402Z,23.80
2019-06-26T23:55:26.064Z,23.80
2019-06-26T23:58:00.821Z,23.70
